Time;durP1;ratioP1;P1;durP2;ratioP2;P2;SDS_P1;SDS_P2;PMS_P1;PMS_P2;Temp;Humidity;BMP_temperature;BMP_pressure;BME280_temperature;BME280_humidity;BME280_pressure;Samples;Min_cycle;Max_cycle;Signal;HPM_P1;HPM_P2
2023/01/07 00:01:25;;;;;;;6.80;1.90;;;12.20;99.90;;;;;;5055658;28;20033;-49
2023/01/07 00:03:52;;;;;;;6.35;2.10;;;12.20;99.90;;;;;;5055732;28;20052;-50
2023/01/07 00:06:18;;;;;;;7.50;2.05;;;12.20;99.90;;;;;;5054739;28;20037;-54
2023/01/07 00:08:45;;;;;;;9.55;2.60;;;12.20;99.90;;;;;;5055720;28;20044;-50
2023/01/07 00:11:12;;;;;;;8.02;2.22;;;12.20;99.90;;;;;;5055861;28;20041;-52
2023/01/07 00:13:39;;;;;;;8.65;2.60;;;12.20;99.90;;;;;;5055722;28;20397;-51
2023/01/07 00:16:05;;;;;;;6.20;1.95;;;12.20;99.90;;;;;;5055478;28;20052;-50
2023/01/07 00:18:32;;;;;;;8.00;2.35;;;12.20;99.90;;;;;;5055786;28;20037;-50
2023/01/07 00:20:59;;;;;;;7.95;2.30;;;12.20;99.90;;;;;;5055595;28;20045;-53
2023/01/07 00:23:26;;;;;;;9.63;2.65;;;12.20;99.90;;;;;;5055628;28;20037;-49
2023/01/07 00:25:52;;;;;;;9.27;2.25;;;12.20;99.90;;;;;;5055694;28;20377;-52
2023/01/07 00:28:19;;;;;;;5.03;2.00;;;12.20;99.90;;;;;;5055579;28;20049;-54
2023/01/07 00:30:46;;;;;;;9.88;2.35;;;12.20;99.90;;;;;;5055434;28;20041;-49
2023/01/07 00:33:14;;;;;;;8.60;2.47;;;12.20;99.90;;;;;;5054025;28;20049;-50
2023/01/07 00:35:43;;;;;;;10.20;2.20;;;12.20;99.90;;;;;;5054291;28;20404;-48
2023/01/07 00:38:10;;;;;;;8.75;2.17;;;12.20;99.90;;;;;;5054741;28;20484;-50
2023/01/07 00:40:37;;;;;;;6.40;1.95;;;12.20;99.90;;;;;;5055503;28;20051;-46
2023/01/07 00:43:05;;;;;;;6.25;2.33;;;12.20;99.90;;;;;;5055075;28;20037;-49
2023/01/07 00:45:32;;;;;;;7.47;2.10;;;12.20;99.90;;;;;;5053917;28;20044;-49
2023/01/07 00:47:59;;;;;;;8.52;1.80;;;12.20;99.90;;;;;;5055570;28;20049;-45
2023/01/07 00:50:26;;;;;;;7.95;2.10;;;12.20;99.90;;;;;;5054000;28;20048;-48
2023/01/07 00:52:53;;;;;;;7.25;2.13;;;12.20;99.90;;;;;;5055096;28;20037;-50
2023/01/07 00:55:19;;;;;;;7.18;2.15;;;12.20;99.90;;;;;;5053502;28;20107;-53
2023/01/07 00:57:46;;;;;;;8.80;2.00;;;12.20;99.90;;;;;;5053952;28;20480;-50
2023/01/07 01:00:13;;;;;;;9.20;2.55;;;12.20;99.90;;;;;;5053509;28;20037;-50
2023/01/07 01:02:40;;;;;;;12.93;2.55;;;12.20;99.90;;;;;;5054724;28;20049;-49
2023/01/07 01:05:07;;;;;;;8.95;2.58;;;12.10;99.90;;;;;;5054914;28;20498;-49
2023/01/07 01:07:34;;;;;;;8.27;2.28;;;12.20;99.90;;;;;;5053481;28;20049;-47
2023/01/07 01:10:01;;;;;;;9.50;2.63;;;12.20;99.90;;;;;;5053801;28;20053;-47
2023/01/07 01:12:27;;;;;;;10.98;2.83;;;12.20;99.90;;;;;;5053277;28;20555;-49
2023/01/07 01:14:54;;;;;;;8.95;2.10;;;12.10;99.90;;;;;;5054840;28;20107;-51
2023/01/07 01:17:22;;;;;;;7.78;2.30;;;12.10;99.90;;;;;;5054401;28;20055;-51
2023/01/07 01:19:48;;;;;;;8.68;2.38;;;12.20;99.90;;;;;;5054142;28;20437;-50
2023/01/07 01:22:15;;;;;;;8.35;2.17;;;12.10;99.90;;;;;;5053425;28;20044;-53
2023/01/07 01:24:43;;;;;;;7.45;2.22;;;12.20;99.90;;;;;;5053350;28;20492;-47
2023/01/07 01:27:09;;;;;;;7.70;2.35;;;12.10;99.90;;;;;;5053087;28;20053;-50
2023/01/07 01:29:36;;;;;;;8.35;2.40;;;12.20;99.90;;;;;;5054169;28;20120;-53
2023/01/07 01:32:04;;;;;;;7.13;2.55;;;12.20;99.90;;;;;;5036944;28;20424;-51
2023/01/07 01:34:31;;;;;;;9.77;2.63;;;12.20;99.90;;;;;;5053046;28;20041;-50
2023/01/07 01:36:58;;;;;;;8.45;2.20;;;12.20;99.90;;;;;;5054342;28;20053;-50
2023/01/07 01:39:25;;;;;;;12.43;2.38;;;12.10;99.90;;;;;;5053267;28;20404;-54
2023/01/07 01:41:51;;;;;;;8.18;2.33;;;12.20;99.90;;;;;;5052424;28;20069;-51
2023/01/07 01:44:18;;;;;;;10.38;2.85;;;12.20;99.90;;;;;;5052875;28;20040;-52
2023/01/07 01:46:45;;;;;;;8.60;2.50;;;12.20;99.90;;;;;;5052663;28;20079;-51
2023/01/07 01:49:12;;;;;;;9.50;2.35;;;12.20;99.90;;;;;;5053023;28;20045;-49
2023/01/07 01:51:39;;;;;;;9.27;2.38;;;12.20;99.90;;;;;;5052661;28;20045;-55
2023/01/07 01:54:06;;;;;;;9.00;2.55;;;12.20;99.90;;;;;;5052936;28;20041;-49
2023/01/07 01:56:33;;;;;;;9.18;2.40;;;12.20;99.90;;;;;;5053734;28;20068;-52
2023/01/07 01:58:59;;;;;;;9.10;2.38;;;12.20;99.90;;;;;;5052744;28;20053;-52
2023/01/07 02:01:26;;;;;;;8.30;2.30;;;12.20;99.90;;;;;;5052735;28;20543;-50
2023/01/07 02:03:56;;;;;;;6.95;2.10;;;12.20;99.90;;;;;;5052596;28;20451;-50
2023/01/07 02:06:23;;;;;;;11.15;2.40;;;12.10;99.90;;;;;;5052522;28;20144;-50
2023/01/07 02:08:51;;;;;;;7.90;2.22;;;12.20;99.90;;;;;;5052545;28;20103;-50
2023/01/07 02:11:19;;;;;;;7.63;2.38;;;12.10;99.90;;;;;;5052678;28;20049;-54
2023/01/07 02:13:46;;;;;;;8.38;2.22;;;12.10;99.90;;;;;;5052682;28;20056;-54
2023/01/07 02:16:12;;;;;;;13.65;2.45;;;12.20;99.90;;;;;;5051575;28;20469;-55
2023/01/07 02:18:40;;;;;;;4.72;1.80;;;12.20;99.90;;;;;;5052556;28;20052;-53
2023/01/07 02:21:07;;;;;;;9.10;2.30;;;12.10;99.90;;;;;;5052328;28;20041;-54
2023/01/07 02:23:33;;;;;;;6.60;2.03;;;12.20;99.90;;;;;;5054001;28;20044;-55
2023/01/07 02:26:01;;;;;;;8.98;2.47;;;12.20;99.90;;;;;;5052172;28;20114;-55
2023/01/07 02:28:27;;;;;;;8.15;2.75;;;12.10;99.90;;;;;;5052628;28;20045;-53
2023/01/07 02:30:54;;;;;;;9.00;2.55;;;12.10;99.90;;;;;;5052240;28;20044;-52
2023/01/07 02:33:21;;;;;;;9.95;2.15;;;12.10;99.90;;;;;;5053116;28;20048;-55
2023/01/07 02:35:48;;;;;;;5.68;1.95;;;12.10;99.90;;;;;;5053716;28;20045;-56
2023/01/07 02:38:15;;;;;;;8.02;1.92;;;12.10;99.90;;;;;;5053204;28;20087;-55
2023/01/07 02:40:42;;;;;;;9.32;2.40;;;12.10;99.90;;;;;;5053369;28;20490;-54
2023/01/07 02:43:08;;;;;;;8.30;2.17;;;12.10;99.90;;;;;;5052319;28;20507;-53
2023/01/07 02:45:36;;;;;;;9.82;2.47;;;12.10;99.90;;;;;;5052244;28;20135;-56
2023/01/07 02:48:03;;;;;;;11.23;2.22;;;12.10;99.90;;;;;;5052300;28;20047;-55
2023/01/07 02:50:29;;;;;;;7.68;1.85;;;12.10;99.90;;;;;;5053675;28;20053;-54
2023/01/07 02:52:56;;;;;;;7.22;1.95;;;12.10;99.90;;;;;;5052062;28;20053;-55
2023/01/07 02:55:23;;;;;;;7.80;1.92;;;12.00;99.90;;;;;;5053113;28;20040;-55
2023/01/07 02:57:50;;;;;;;8.32;2.25;;;12.00;99.90;;;;;;5052104;28;20365;-53
2023/01/07 03:00:17;;;;;;;7.22;1.98;;;12.00;99.90;;;;;;5052262;28;20052;-52
2023/01/07 03:02:43;;;;;;;6.97;2.20;;;12.00;99.90;;;;;;5052013;28;20040;-55
2023/01/07 03:05:10;;;;;;;9.65;2.10;;;12.00;99.90;;;;;;5053055;28;20044;-53
2023/01/07 03:07:37;;;;;;;8.80;1.98;;;12.00;99.90;;;;;;5051490;28;20080;-49
2023/01/07 03:10:04;;;;;;;6.07;1.70;;;12.00;99.90;;;;;;5052229;28;20056;-53
2023/01/07 03:12:31;;;;;;;7.07;1.80;;;12.00;99.90;;;;;;5053282;28;20049;-53
2023/01/07 03:14:57;;;;;;;10.88;2.15;;;12.00;99.90;;;;;;5053291;28;20041;-50
2023/01/07 03:17:24;;;;;;;7.43;2.10;;;12.00;99.90;;;;;;5051366;28;20144;-52
2023/01/07 03:19:51;;;;;;;8.48;1.90;;;12.00;99.90;;;;;;5053176;28;20102;-51
2023/01/07 03:22:18;;;;;;;7.40;1.98;;;12.00;99.90;;;;;;5051618;28;20041;-56
2023/01/07 03:24:44;;;;;;;7.00;1.95;;;12.00;99.90;;;;;;5051956;28;20099;-52
2023/01/07 03:27:11;;;;;;;8.07;2.10;;;12.00;99.90;;;;;;5054294;28;20488;-54
2023/01/07 03:29:38;;;;;;;6.85;1.92;;;12.00;99.90;;;;;;5056633;28;20456;-51
2023/01/07 03:32:05;;;;;;;8.45;2.40;;;12.00;99.90;;;;;;5055686;28;20428;-51
2023/01/07 03:34:32;;;;;;;6.20;2.03;;;12.00;99.90;;;;;;5055359;28;20052;-52
2023/01/07 03:36:59;;;;;;;6.30;2.00;;;12.00;99.90;;;;;;5055560;28;20075;-52
2023/01/07 03:39:26;;;;;;;5.50;2.17;;;12.00;99.90;;;;;;5056296;28;20045;-53
2023/01/07 03:44:39;;;;;;;8.98;2.03;;;12.00;99.90;;;;;;5056469;28;20048;-50
2023/01/07 03:47:06;;;;;;;8.70;2.47;;;11.90;99.90;;;;;;5056688;28;20369;-51
2023/01/07 03:49:33;;;;;;;7.82;2.15;;;11.90;99.90;;;;;;5055265;28;20067;-50
2023/01/07 03:52:00;;;;;;;5.95;2.40;;;11.90;99.90;;;;;;5055271;28;20049;-55
2023/01/07 03:54:27;;;;;;;6.20;2.17;;;11.90;99.90;;;;;;5055031;28;20091;-50
2023/01/07 03:56:54;;;;;;;8.75;2.70;;;11.90;99.90;;;;;;5054713;28;20415;-52
2023/01/07 03:59:21;;;;;;;6.32;2.10;;;11.90;99.90;;;;;;5055137;28;20041;-55
2023/01/07 04:01:48;;;;;;;8.85;1.92;;;11.80;99.90;;;;;;5056270;28;20048;-55
2023/01/07 04:04:15;;;;;;;8.50;2.63;;;11.80;99.90;;;;;;5054878;28;20040;-49
2023/01/07 04:06:42;;;;;;;7.32;2.08;;;11.80;99.90;;;;;;5054582;28;20041;-50
2023/01/07 04:09:09;;;;;;;11.38;2.17;;;11.80;99.90;;;;;;5055808;28;20052;-52
2023/01/07 04:11:36;;;;;;;11.20;2.70;;;11.80;99.90;;;;;;5054926;28;20531;-50
2023/01/07 04:14:03;;;;;;;11.18;3.03;;;11.80;99.90;;;;;;5054773;28;20104;-49
2023/01/07 04:16:30;;;;;;;10.25;3.30;;;11.70;99.90;;;;;;5054278;28;20056;-50
2023/01/07 04:18:57;;;;;;;8.68;2.60;;;11.70;99.90;;;;;;5054375;28;20136;-48
2023/01/07 04:21:24;;;;;;;10.38;2.30;;;11.70;99.90;;;;;;5054554;28;20094;-48
2023/01/07 04:23:51;;;;;;;11.05;2.92;;;11.70;99.90;;;;;;5054441;28;20064;-48
2023/01/07 04:26:18;;;;;;;8.50;2.22;;;11.70;99.90;;;;;;5053940;28;20044;-50
2023/01/07 04:28:44;;;;;;;10.60;2.67;;;11.60;99.90;;;;;;5055231;28;20033;-48
2023/01/07 04:31:11;;;;;;;7.88;2.33;;;11.60;99.90;;;;;;5055760;28;20392;-50
2023/01/07 04:33:39;;;;;;;9.20;2.50;;;11.60;99.90;;;;;;5054339;28;20048;-54
2023/01/07 04:36:05;;;;;;;8.40;2.28;;;11.60;99.90;;;;;;5053910;28;20072;-50
2023/01/07 04:38:32;;;;;;;11.75;2.35;;;11.60;99.90;;;;;;5054864;28;20052;-52
2023/01/07 04:40:59;;;;;;;6.10;1.60;;;11.60;99.90;;;;;;5055476;28;20063;-53
2023/01/07 04:43:26;;;;;;;10.88;2.45;;;11.60;99.90;;;;;;5053879;28;20068;-49
2023/01/07 04:45:53;;;;;;;9.32;2.45;;;11.60;99.90;;;;;;5055050;28;20033;-51
2023/01/07 04:48:20;;;;;;;9.10;2.17;;;11.50;99.90;;;;;;5055249;28;20041;-51
2023/01/07 04:50:49;;;;;;;13.57;2.88;;;11.50;99.90;;;;;;5053877;28;20499;-48
2023/01/07 04:53:16;;;;;;;12.00;2.55;;;11.50;99.90;;;;;;5055653;28;20484;-49
2023/01/07 04:55:45;;;;;;;7.13;2.30;;;11.50;99.90;;;;;;5053716;28;20064;-54
2023/01/07 04:58:12;;;;;;;8.70;2.20;;;11.40;99.90;;;;;;5054037;28;20049;-52
2023/01/07 05:00:39;;;;;;;9.95;2.55;;;11.50;99.90;;;;;;5054937;28;20043;-50
2023/01/07 05:03:07;;;;;;;11.30;2.40;;;11.40;99.90;;;;;;5054848;28;20067;-50
2023/01/07 05:05:34;;;;;;;8.63;2.30;;;11.40;99.90;;;;;;5053640;28;20087;-52
2023/01/07 05:08:02;;;;;;;9.57;2.45;;;11.40;99.90;;;;;;5053238;28;20060;-51
2023/01/07 05:10:29;;;;;;;11.73;2.75;;;11.40;99.90;;;;;;5053707;28;20444;-49
2023/01/07 05:12:56;;;;;;;9.05;2.08;;;11.40;99.90;;;;;;5053264;28;20041;-51
2023/01/07 05:15:24;;;;;;;10.25;2.92;;;11.40;99.90;;;;;;5053303;28;20056;-48
2023/01/07 05:17:52;;;;;;;8.30;2.17;;;11.40;99.90;;;;;;5053484;28;20061;-49
2023/01/07 05:20:22;;;;;;;7.40;2.30;;;11.40;99.90;;;;;;5053298;28;20068;-48
2023/01/07 05:22:49;;;;;;;8.77;2.33;;;11.40;99.90;;;;;;5052906;28;20045;-47
2023/01/07 05:25:17;;;;;;;8.45;2.35;;;11.40;99.90;;;;;;5053084;28;20052;-51
2023/01/07 05:27:44;;;;;;;9.27;2.60;;;11.40;99.90;;;;;;5054658;28;20043;-49
2023/01/07 05:30:11;;;;;;;9.38;2.28;;;11.40;99.90;;;;;;5053169;28;20048;-51
2023/01/07 05:32:38;;;;;;;7.65;2.38;;;11.40;99.90;;;;;;5054272;28;20361;-49
2023/01/07 05:35:05;;;;;;;8.57;2.08;;;11.40;99.90;;;;;;5052653;28;20049;-50
2023/01/07 05:37:33;;;;;;;8.77;2.10;;;11.40;99.90;;;;;;5052642;28;20056;-47
2023/01/07 05:40:00;;;;;;;8.27;2.30;;;11.40;99.90;;;;;;5054207;28;20049;-48
2023/01/07 05:42:27;;;;;;;7.55;2.20;;;11.40;99.90;;;;;;5052828;28;20051;-51
2023/01/07 05:44:54;;;;;;;7.55;2.15;;;11.30;99.90;;;;;;5053032;28;20056;-48
2023/01/07 05:47:21;;;;;;;12.93;2.40;;;11.30;99.90;;;;;;5054029;28;20361;-46
2023/01/07 05:49:48;;;;;;;8.52;2.28;;;11.30;99.90;;;;;;5052955;28;20090;-47
2023/01/07 05:52:15;;;;;;;6.80;1.90;;;11.30;99.90;;;;;;5054128;28;20045;-48
2023/01/07 05:54:41;;;;;;;9.15;1.98;;;11.30;99.90;;;;;;5053940;28;20041;-48
2023/01/07 05:57:08;;;;;;;8.52;2.58;;;11.30;99.90;;;;;;5053568;28;20052;-46
2023/01/07 05:59:35;;;;;;;6.28;1.90;;;11.30;99.90;;;;;;5053902;28;20045;-47
2023/01/07 06:02:02;;;;;;;9.50;2.35;;;11.30;99.90;;;;;;5053661;28;20041;-48
2023/01/07 06:04:29;;;;;;;8.65;2.45;;;11.30;99.90;;;;;;5052691;28;20373;-50
2023/01/07 06:06:56;;;;;;;8.77;2.13;;;11.30;99.90;;;;;;5052578;28;20498;-46
2023/01/07 06:09:22;;;;;;;7.97;1.92;;;11.30;99.90;;;;;;5053784;28;20052;-48
2023/01/07 06:11:49;;;;;;;8.75;2.20;;;11.30;99.90;;;;;;5053769;28;20052;-47
2023/01/07 06:14:16;;;;;;;11.48;2.35;;;11.20;99.90;;;;;;5053892;28;20049;-46
2023/01/07 06:16:43;;;;;;;10.27;2.53;;;11.20;99.90;;;;;;5053342;28;20045;-46
2023/01/07 06:19:09;;;;;;;8.55;2.53;;;11.20;99.90;;;;;;5053513;28;20049;-46
2023/01/07 06:21:36;;;;;;;7.95;2.33;;;11.20;99.90;;;;;;5053252;28;20037;-49
2023/01/07 06:24:03;;;;;;;6.78;2.10;;;11.10;99.90;;;;;;5053415;28;20045;-47
2023/01/07 06:26:29;;;;;;;8.43;2.33;;;11.10;99.90;;;;;;5053265;28;20037;-47
2023/01/07 06:28:56;;;;;;;8.20;2.75;;;11.10;99.90;;;;;;5053844;28;20120;-52
2023/01/07 06:31:23;;;;;;;8.68;2.42;;;11.10;99.90;;;;;;5053635;28;20075;-48
2023/01/07 06:33:50;;;;;;;7.47;2.22;;;11.20;99.90;;;;;;5053255;28;20519;-50
2023/01/07 06:36:17;;;;;;;9.05;2.47;;;11.10;99.90;;;;;;5053436;28;20399;-50
2023/01/07 06:38:43;;;;;;;7.15;2.15;;;11.10;99.90;;;;;;5053842;28;20043;-49
2023/01/07 06:41:10;;;;;;;6.53;2.55;;;11.10;99.90;;;;;;5052327;28;20045;-52
2023/01/07 06:43:37;;;;;;;12.00;2.78;;;11.10;99.90;;;;;;5053468;28;20508;-51
2023/01/07 06:46:04;;;;;;;7.95;2.35;;;11.10;99.90;;;;;;5053338;28;20057;-48
2023/01/07 06:48:31;;;;;;;7.03;2.55;;;11.10;99.90;;;;;;5053631;28;20395;-49
2023/01/07 06:50:57;;;;;;;8.82;2.70;;;11.10;99.90;;;;;;5053291;28;20087;-51
2023/01/07 06:53:24;;;;;;;9.48;2.53;;;11.10;99.90;;;;;;5053563;28;20056;-48
2023/01/07 06:55:51;;;;;;;10.32;2.60;;;11.10;99.90;;;;;;5053469;28;20098;-49
2023/01/07 06:58:18;;;;;;;12.20;3.33;;;11.10;99.90;;;;;;5051789;28;20056;-52
2023/01/07 07:00:44;;;;;;;13.05;2.70;;;11.10;99.90;;;;;;5052822;28;20472;-51
2023/01/07 07:03:11;;;;;;;9.52;2.47;;;11.10;99.90;;;;;;5057280;28;20117;-51
2023/01/07 07:05:38;;;;;;;11.85;2.85;;;11.10;99.90;;;;;;5057109;28;20040;-49
2023/01/07 07:08:05;;;;;;;10.93;3.03;;;11.10;99.90;;;;;;5057171;28;20391;-48
2023/01/07 07:10:32;;;;;;;11.63;2.97;;;11.10;99.90;;;;;;5056752;28;20045;-49
2023/01/07 07:12:58;;;;;;;7.25;2.40;;;11.10;99.90;;;;;;5057417;28;20483;-46
2023/01/07 07:15:25;;;;;;;14.77;3.17;;;11.10;99.90;;;;;;5057072;28;20559;-47
2023/01/07 07:17:52;;;;;;;11.85;2.63;;;11.10;99.90;;;;;;5056613;28;20175;-53
2023/01/07 07:20:18;;;;;;;9.57;2.30;;;11.10;99.90;;;;;;5056772;28;20037;-54
2023/01/07 07:22:45;;;;;;;8.15;2.45;;;11.10;99.90;;;;;;5056963;28;20100;-51
2023/01/07 07:25:12;;;;;;;7.35;2.05;;;11.10;99.90;;;;;;5056900;28;20045;-49
2023/01/07 07:27:39;;;;;;;9.55;2.97;;;11.10;99.90;;;;;;5056583;28;20048;-50
2023/01/07 07:30:06;;;;;;;9.80;2.33;;;11.10;99.90;;;;;;5056980;28;20075;-50
2023/01/07 07:32:33;;;;;;;11.23;2.55;;;11.10;99.90;;;;;;5056831;28;20064;-52
2023/01/07 07:35:00;;;;;;;9.10;2.28;;;11.10;99.90;;;;;;5052907;28;20538;-51
2023/01/07 07:37:27;;;;;;;14.65;3.00;;;11.10;99.90;;;;;;5036518;28;20053;-49
2023/01/07 07:39:53;;;;;;;6.68;2.45;;;11.10;99.90;;;;;;5036583;28;20048;-50
2023/01/07 07:42:20;;;;;;;6.72;2.28;;;11.10;99.90;;;;;;5036339;28;20543;-48
2023/01/07 07:44:48;;;;;;;6.97;2.22;;;11.10;99.90;;;;;;5036461;28;20037;-48
2023/01/07 07:47:15;;;;;;;8.77;2.83;;;11.10;99.90;;;;;;5036757;28;20428;-50
2023/01/07 07:49:42;;;;;;;10.02;2.50;;;11.10;99.90;;;;;;5036515;28;20045;-48
2023/01/07 07:52:09;;;;;;;10.05;2.45;;;11.10;99.90;;;;;;5035492;28;20091;-47
2023/01/07 07:54:35;;;;;;;9.23;2.50;;;11.10;99.90;;;;;;5035342;28;20080;-47
2023/01/07 07:57:02;;;;;;;12.32;3.08;;;11.10;99.90;;;;;;5034935;28;20095;-52
2023/01/07 07:59:29;;;;;;;9.52;2.40;;;11.10;99.90;;;;;;5034889;28;20045;-49
2023/01/07 08:01:56;;;;;;;7.57;2.30;;;11.10;99.90;;;;;;5034651;28;20080;-50
2023/01/07 08:04:23;;;;;;;12.88;2.78;;;11.10;99.90;;;;;;5034753;28;20480;-53
2023/01/07 08:06:49;;;;;;;9.02;2.83;;;11.10;99.90;;;;;;5034408;28;20095;-52
2023/01/07 08:09:16;;;;;;;10.60;2.60;;;11.10;99.90;;;;;;5035093;28;20104;-48
2023/01/07 08:11:43;;;;;;;10.30;2.95;;;11.10;99.90;;;;;;5035804;28;20049;-53
2023/01/07 08:14:10;;;;;;;13.95;3.22;;;11.10;99.90;;;;;;5034948;28;20046;-50
2023/01/07 08:16:36;;;;;;;9.98;2.55;;;11.10;99.90;;;;;;5035684;28;20052;-52
2023/01/07 08:19:03;;;;;;;8.88;2.25;;;11.10;99.90;;;;;;5035450;28;20052;-48
2023/01/07 08:21:30;;;;;;;9.82;2.40;;;11.10;99.90;;;;;;5034998;28;20091;-54
2023/01/07 08:23:57;;;;;;;9.02;2.70;;;11.10;99.90;;;;;;5035780;28;20103;-53
2023/01/07 08:26:23;;;;;;;8.98;2.67;;;11.10;99.90;;;;;;5035733;28;20099;-53
2023/01/07 08:28:50;;;;;;;9.60;2.72;;;11.10;99.90;;;;;;5035740;28;20065;-51
2023/01/07 08:31:17;;;;;;;8.65;2.55;;;11.10;99.90;;;;;;5035931;28;20049;-51
2023/01/07 08:33:44;;;;;;;12.38;3.58;;;11.10;99.90;;;;;;5035560;28;20037;-49
2023/01/07 08:36:10;;;;;;;10.60;2.55;;;11.10;99.90;;;;;;5035703;28;20467;-51
2023/01/07 08:38:48;;;;;;;15.48;3.03;;;11.10;99.90;;;;;;5035863;28;20382;-50
2023/01/07 08:41:15;;;;;;;9.68;2.60;;;11.10;99.90;;;;;;5035611;28;20075;-52
2023/01/07 08:43:43;;;;;;;9.38;2.78;;;11.10;99.90;;;;;;5035391;28;20094;-52
2023/01/07 08:46:10;;;;;;;12.25;2.58;;;11.00;99.90;;;;;;5035021;28;20083;-50
2023/01/07 08:48:40;;;;;;;10.18;2.85;;;11.00;99.90;;;;;;5035400;28;20041;-49
2023/01/07 08:51:07;;;;;;;17.23;3.03;;;10.90;99.90;;;;;;5034902;28;20045;-49
2023/01/07 08:53:33;;;;;;;14.13;2.97;;;10.80;99.90;;;;;;5035046;28;20068;-46
2023/01/07 08:56:00;;;;;;;14.73;2.75;;;10.80;99.90;;;;;;5035339;28;20056;-49
2023/01/07 08:58:27;;;;;;;10.88;3.10;;;10.80;99.90;;;;;;5035167;28;20052;-52
2023/01/07 09:00:54;;;;;;;9.73;2.40;;;10.70;99.90;;;;;;5033727;28;20462;-51
2023/01/07 09:03:21;;;;;;;11.15;2.80;;;10.70;99.90;;;;;;5035265;28;20045;-52
2023/01/07 09:05:48;;;;;;;9.45;2.85;;;10.70;99.90;;;;;;5034999;28;20057;-53
2023/01/07 09:08:14;;;;;;;14.48;3.03;;;10.70;99.90;;;;;;5035278;28;20469;-52
2023/01/07 09:10:41;;;;;;;10.82;3.20;;;10.70;99.90;;;;;;5034893;28;20033;-53
2023/01/07 09:13:08;;;;;;;12.60;2.90;;;10.70;99.90;;;;;;5034601;28;20124;-53
2023/01/07 09:15:35;;;;;;;9.90;3.45;;;10.60;99.90;;;;;;5034694;28;20049;-50
2023/01/07 09:18:02;;;;;;;9.88;2.67;;;10.60;99.90;;;;;;5034777;28;20080;-52
2023/01/07 09:20:29;;;;;;;9.32;3.05;;;10.60;99.90;;;;;;5034574;28;20388;-51
2023/01/07 09:22:56;;;;;;;10.30;2.78;;;10.50;99.90;;;;;;5034754;28;20415;-53
2023/01/07 09:25:22;;;;;;;8.95;2.58;;;10.60;99.90;;;;;;5034316;28;20041;-50
2023/01/07 09:27:49;;;;;;;8.88;2.40;;;10.60;99.90;;;;;;5034540;28;20047;-56
2023/01/07 09:30:16;;;;;;;13.88;3.10;;;10.50;99.90;;;;;;5034599;28;20087;-53
2023/01/07 09:32:43;;;;;;;8.07;2.28;;;10.50;99.90;;;;;;5034704;28;20060;-50
2023/01/07 09:35:09;;;;;;;10.30;2.40;;;10.50;99.90;;;;;;5034591;28;20488;-49
2023/01/07 09:37:36;;;;;;;8.75;2.67;;;10.50;99.90;;;;;;5034531;28;20050;-53
2023/01/07 09:40:03;;;;;;;11.10;2.45;;;10.50;99.90;;;;;;5034633;28;20065;-53
2023/01/07 09:42:30;;;;;;;12.02;2.88;;;10.50;99.90;;;;;;5034250;28;20041;-51
2023/01/07 09:44:59;;;;;;;7.88;2.45;;;10.50;99.90;;;;;;5033311;28;20103;-52
2023/01/07 09:47:26;;;;;;;8.98;2.97;;;10.50;99.90;;;;;;5033041;28;20091;-52
2023/01/07 09:49:53;;;;;;;7.45;2.63;;;10.40;99.90;;;;;;5034438;28;20468;-51
2023/01/07 09:52:19;;;;;;;8.63;2.80;;;10.40;99.90;;;;;;5033990;28;20096;-52
2023/01/07 09:54:46;;;;;;;11.60;2.60;;;10.30;99.90;;;;;;5034267;28;20142;-50
2023/01/07 09:57:13;;;;;;;10.70;2.60;;;10.30;99.90;;;;;;5033929;28;20120;-54
2023/01/07 09:59:40;;;;;;;7.25;2.50;;;10.30;99.90;;;;;;5034208;28;20037;-52
2023/01/07 10:02:06;;;;;;;13.10;2.97;;;10.30;99.90;;;;;;5033904;28;20076;-53
2023/01/07 10:04:33;;;;;;;11.20;3.00;;;10.30;99.90;;;;;;5033782;28;20103;-51
2023/01/07 10:07:00;;;;;;;10.52;3.03;;;10.30;99.90;;;;;;5033624;28;20455;-55
2023/01/07 10:09:26;;;;;;;9.65;2.85;;;10.30;99.90;;;;;;5033884;28;20072;-50
2023/01/07 10:11:54;;;;;;;9.85;2.65;;;10.30;99.90;;;;;;5032512;28;20045;-54
2023/01/07 10:14:21;;;;;;;10.48;2.45;;;10.30;99.90;;;;;;5033824;28;20449;-51
2023/01/07 10:16:47;;;;;;;8.65;2.35;;;10.30;99.90;;;;;;5033668;28;20096;-48
2023/01/07 10:19:14;;;;;;;9.32;2.33;;;10.30;99.90;;;;;;5033784;28;20045;-49
2023/01/07 10:21:41;;;;;;;10.05;2.97;;;10.30;99.90;;;;;;5033532;28;20381;-52
2023/01/07 10:24:08;;;;;;;10.38;2.67;;;10.30;99.90;;;;;;5033805;28;20092;-54
2023/01/07 10:26:34;;;;;;;9.50;2.70;;;10.20;99.90;;;;;;5033849;28;20038;-53
2023/01/07 10:29:01;;;;;;;9.02;2.78;;;10.20;99.90;;;;;;5033450;28;20049;-49
2023/01/07 10:31:28;;;;;;;16.10;3.85;;;10.30;99.90;;;;;;5033649;28;20084;-52
2023/01/07 10:33:56;;;;;;;8.30;3.05;;;10.30;99.90;;;;;;5033953;28;20046;-50
2023/01/07 10:36:22;;;;;;;10.68;3.15;;;10.30;99.90;;;;;;5035780;28;20385;-54
2023/01/07 10:38:49;;;;;;;10.40;2.67;;;10.30;99.90;;;;;;5040085;28;20178;-49
2023/01/07 10:41:16;;;;;;;9.07;2.95;;;10.30;99.90;;;;;;5040038;28;20099;-54
2023/01/07 10:43:43;;;;;;;12.02;3.22;;;10.30;99.90;;;;;;5040376;28;20041;-52
2023/01/07 10:46:09;;;;;;;14.82;3.60;;;10.30;99.90;;;;;;5040076;28;20107;-52
2023/01/07 10:48:37;;;;;;;10.45;3.03;;;10.30;99.90;;;;;;5039833;28;20113;-53
2023/01/07 10:51:03;;;;;;;11.48;3.22;;;10.30;99.90;;;;;;5039851;28;20069;-47
2023/01/07 10:53:30;;;;;;;12.85;3.00;;;10.30;99.90;;;;;;5040276;28;20091;-50
2023/01/07 10:55:57;;;;;;;13.95;3.38;;;10.40;99.90;;;;;;5039893;28;20067;-47
2023/01/07 10:58:23;;;;;;;15.10;3.40;;;10.40;99.90;;;;;;5039960;28;20104;-48
2023/01/07 11:00:50;;;;;;;14.43;3.00;;;10.40;99.90;;;;;;5039914;28;20049;-49
2023/01/07 11:03:17;;;;;;;14.02;3.20;;;10.40;99.90;;;;;;5040039;28;20124;-53
2023/01/07 11:05:44;;;;;;;10.60;2.92;;;10.40;99.90;;;;;;5039533;28;20045;-52
2023/01/07 11:08:11;;;;;;;16.42;3.50;;;10.40;99.90;;;;;;5040037;28;20041;-50
2023/01/07 11:10:37;;;;;;;11.60;3.55;;;10.50;99.90;;;;;;5039650;28;20471;-53
2023/01/07 11:13:04;;;;;;;12.05;3.63;;;10.50;99.90;;;;;;5039635;28;20095;-50
2023/01/07 11:15:31;;;;;;;17.75;3.65;;;10.50;99.90;;;;;;5039802;28;20045;-52
2023/01/07 11:17:58;;;;;;;13.10;2.97;;;10.50;99.90;;;;;;5039678;28;20053;-52
2023/01/07 11:20:25;;;;;;;11.88;3.15;;;10.50;99.90;;;;;;5039944;28;20041;-51
2023/01/07 11:22:51;;;;;;;11.75;3.45;;;10.50;99.90;;;;;;5038453;28;20040;-50
2023/01/07 11:25:18;;;;;;;11.80;3.63;;;10.50;99.90;;;;;;5039984;28;20034;-50
2023/01/07 11:27:45;;;;;;;11.35;3.17;;;10.50;99.90;;;;;;5039872;28;20099;-51
2023/01/07 11:30:13;;;;;;;11.85;3.03;;;10.60;99.90;;;;;;5039790;28;20481;-54
2023/01/07 11:32:39;;;;;;;13.13;3.03;;;10.60;99.90;;;;;;5039331;28;20099;-53
2023/01/07 11:35:06;;;;;;;12.13;3.42;;;10.60;99.90;;;;;;5039632;28;20111;-50
2023/01/07 11:37:33;;;;;;;13.73;3.53;;;10.60;99.90;;;;;;5039595;28;20218;-52
2023/01/07 11:39:59;;;;;;;10.63;3.10;;;10.70;99.90;;;;;;5039670;28;20444;-48
2023/01/07 11:42:38;;;;;;;11.50;3.03;;;10.70;99.90;;;;;;5039480;28;20046;-51
2023/01/07 11:45:05;;;;;;;12.88;3.17;;;10.70;99.90;;;;;;5039779;28;20044;-53
2023/01/07 11:47:32;;;;;;;10.23;3.03;;;10.70;99.90;;;;;;5038057;28;20084;-54
2023/01/07 11:49:59;;;;;;;8.93;2.90;;;10.70;99.90;;;;;;5036079;28;20045;-49
2023/01/07 11:52:25;;;;;;;9.60;2.80;;;10.70;99.90;;;;;;5036172;28;20099;-53
2023/01/07 11:54:52;;;;;;;9.50;3.10;;;10.70;99.90;;;;;;5036606;28;20049;-53
2023/01/07 11:57:19;;;;;;;12.32;2.90;;;10.70;99.90;;;;;;5036210;28;20107;-48
2023/01/07 11:59:45;;;;;;;13.45;3.88;;;10.80;99.90;;;;;;5035896;28;20037;-48
2023/01/07 12:02:12;;;;;;;13.90;3.15;;;10.80;99.90;;;;;;5035841;28;20499;-48
2023/01/07 12:04:41;;;;;;;13.05;3.08;;;10.80;99.90;;;;;;5036081;28;20034;-49
2023/01/07 12:07:08;;;;;;;11.30;2.70;;;10.80;99.90;;;;;;5035811;28;20448;-53
2023/01/07 12:09:35;;;;;;;8.98;3.30;;;10.90;99.90;;;;;;5035953;28;20385;-56
2023/01/07 12:12:02;;;;;;;14.63;3.53;;;10.90;99.90;;;;;;5036254;28;20076;-52
2023/01/07 12:14:28;;;;;;;11.30;3.58;;;10.90;99.90;;;;;;5035984;28;20111;-53
2023/01/07 12:16:56;;;;;;;9.73;2.75;;;10.90;99.90;;;;;;5035394;28;20057;-54
2023/01/07 12:19:23;;;;;;;11.13;3.40;;;10.90;99.90;;;;;;5035796;28;20159;-54
2023/01/07 12:21:50;;;;;;;10.48;3.17;;;10.80;99.90;;;;;;5036160;28;20053;-56
2023/01/07 12:24:16;;;;;;;12.75;3.53;;;10.90;99.90;;;;;;5035633;28;20045;-53
2023/01/07 12:26:43;;;;;;;10.77;3.03;;;10.90;99.90;;;;;;5035532;28;20060;-49
2023/01/07 12:29:10;;;;;;;12.82;3.30;;;11.00;99.90;;;;;;5035843;28;20412;-50
2023/01/07 12:31:37;;;;;;;12.60;2.97;;;11.10;99.90;;;;;;5017878;28;20042;-51
2023/01/07 12:34:03;;;;;;;9.18;3.22;;;11.10;99.90;;;;;;5035779;28;20041;-53
2023/01/07 12:36:30;;;;;;;16.90;3.83;;;11.10;99.90;;;;;;5035801;28;20045;-53
2023/01/07 12:38:57;;;;;;;10.25;3.20;;;11.10;99.90;;;;;;5035495;28;20412;-56
2023/01/07 12:41:24;;;;;;;10.18;3.17;;;11.20;99.90;;;;;;5035342;28;20045;-55
2023/01/07 12:43:50;;;;;;;11.20;3.00;;;11.10;99.90;;;;;;5035591;28;20041;-50